sensor_id;sensor_type;location;lat;lon;timestamp;pressure;altitude;pressure_sealevel;temperature;humidity
29733;BME280;16643;43.158;25.302;2023-04-01T00:01:10;97044.81;;;12.40;68.18
29733;BME280;16643;43.158;25.302;2023-04-01T00:03:39;97045.16;;;12.49;66.51
29733;BME280;16643;43.158;25.302;2023-04-01T00:06:05;97027.50;;;12.39;66.84
29733;BME280;16643;43.158;25.302;2023-04-01T00:08:31;97039.41;;;12.43;67.30
29733;BME280;16643;43.158;25.302;2023-04-01T00:10:57;97049.94;;;12.41;66.82
29733;BME280;16643;43.158;25.302;2023-04-01T00:13:24;97053.53;;;12.54;67.52
29733;BME280;16643;43.158;25.302;2023-04-01T00:15:50;97040.25;;;12.43;67.38
29733;BME280;16643;43.158;25.302;2023-04-01T00:18:16;97045.63;;;12.56;67.09
29733;BME280;16643;43.158;25.302;2023-04-01T00:20:47;97032.94;;;12.34;68.29
29733;BME280;16643;43.158;25.302;2023-04-01T00:23:14;97034.28;;;12.57;67.56
29733;BME280;16643;43.158;25.302;2023-04-01T00:25:40;97018.06;;;12.52;66.80
29733;BME280;16643;43.158;25.302;2023-04-01T00:28:06;97027.72;;;12.65;66.88
29733;BME280;16643;43.158;25.302;2023-04-01T00:30:31;97004.94;;;12.53;66.03
29733;BME280;16643;43.158;25.302;2023-04-01T00:32:57;97011.91;;;12.53;66.45
29733;BME280;16643;43.158;25.302;2023-04-01T00:35:23;97005.13;;;12.50;65.30
29733;BME280;16643;43.158;25.302;2023-04-01T00:37:48;97002.69;;;12.63;65.97
29733;BME280;16643;43.158;25.302;2023-04-01T00:40:36;97009.69;;;12.77;65.24
29733;BME280;16643;43.158;25.302;2023-04-01T00:43:03;96994.81;;;12.79;65.46
29733;BME280;16643;43.158;25.302;2023-04-01T00:45:37;96981.38;;;12.70;64.83
29733;BME280;16643;43.158;25.302;2023-04-01T00:48:10;96984.53;;;12.76;64.63
29733;BME280;16643;43.158;25.302;2023-04-01T00:50:37;96986.50;;;12.72;65.02
29733;BME280;16643;43.158;25.302;2023-04-01T00:53:05;97002.00;;;12.89;64.97
29733;BME280;16643;43.158;25.302;2023-04-01T00:55:35;96988.63;;;12.95;63.77
29733;BME280;16643;43.158;25.302;2023-04-01T00:58:04;96947.31;;;12.73;63.59
29733;BME280;16643;43.158;25.302;2023-04-01T01:00:30;96981.13;;;13.05;63.80
29733;BME280;16643;43.158;25.302;2023-04-01T01:02:56;97001.06;;;13.06;63.51
29733;BME280;16643;43.158;25.302;2023-04-01T01:05:34;96988.94;;;13.05;63.79
29733;BME280;16643;43.158;25.302;2023-04-01T01:11:08;96985.81;;;12.98;62.96
29733;BME280;16643;43.158;25.302;2023-04-01T01:13:56;96941.38;;;12.86;63.09
29733;BME280;16643;43.158;25.302;2023-04-01T01:16:29;96958.56;;;13.04;62.44
29733;BME280;16643;43.158;25.302;2023-04-01T01:19:14;96976.69;;;13.21;62.18
29733;BME280;16643;43.158;25.302;2023-04-01T01:27:16;96962.00;;;13.04;61.97
29733;BME280;16643;43.158;25.302;2023-04-01T01:30:09;96978.75;;;13.16;62.08
29733;BME280;16643;43.158;25.302;2023-04-01T01:37:46;96954.44;;;13.00;61.88
29733;BME280;16643;43.158;25.302;2023-04-01T01:40:13;96938.78;;;12.86;62.03
29733;BME280;16643;43.158;25.302;2023-04-01T01:42:44;96954.28;;;13.03;61.75
29733;BME280;16643;43.158;25.302;2023-04-01T01:45:13;96974.59;;;13.12;60.95
29733;BME280;16643;43.158;25.302;2023-04-01T01:47:40;96965.16;;;13.09;61.89
29733;BME280;16643;43.158;25.302;2023-04-01T01:50:08;96959.47;;;13.03;61.23
29733;BME280;16643;43.158;25.302;2023-04-01T01:52:34;96947.91;;;12.93;61.05
29733;BME280;16643;43.158;25.302;2023-04-01T01:55:00;96948.66;;;12.95;61.40
29733;BME280;16643;43.158;25.302;2023-04-01T01:57:29;96953.94;;;13.09;61.25
29733;BME280;16643;43.158;25.302;2023-04-01T02:00:02;96889.19;;;12.71;61.38
29733;BME280;16643;43.158;25.302;2023-04-01T02:02:28;96932.19;;;12.94;61.69
29733;BME280;16643;43.158;25.302;2023-04-01T02:04:58;96951.28;;;12.95;62.45
29733;BME280;16643;43.158;25.302;2023-04-01T02:07:27;96929.56;;;12.64;63.81
29733;BME280;16643;43.158;25.302;2023-04-01T02:09:56;96937.06;;;12.70;62.36
29733;BME280;16643;43.158;25.302;2023-04-01T02:12:22;96934.06;;;12.77;63.15
29733;BME280;16643;43.158;25.302;2023-04-01T02:14:55;96914.13;;;12.61;62.53
29733;BME280;16643;43.158;25.302;2023-04-01T02:17:30;96913.53;;;12.56;63.83
29733;BME280;16643;43.158;25.302;2023-04-01T02:20:02;96893.22;;;12.47;62.69
29733;BME280;16643;43.158;25.302;2023-04-01T02:22:37;96887.63;;;12.39;64.01
29733;BME280;16643;43.158;25.302;2023-04-01T02:25:12;96924.47;;;12.63;63.39
29733;BME280;16643;43.158;25.302;2023-04-01T02:27:39;96909.16;;;12.57;62.10
29733;BME280;16643;43.158;25.302;2023-04-01T02:30:06;96901.25;;;12.58;62.89
29733;BME280;16643;43.158;25.302;2023-04-01T02:32:33;96906.56;;;12.57;63.37
29733;BME280;16643;43.158;25.302;2023-04-01T02:35:00;96925.72;;;12.56;63.42
29733;BME280;16643;43.158;25.302;2023-04-01T02:37:31;96912.06;;;12.52;62.80
29733;BME280;16643;43.158;25.302;2023-04-01T02:40:03;96927.25;;;12.60;62.97
29733;BME280;16643;43.158;25.302;2023-04-01T02:42:31;96905.03;;;12.53;62.70
29733;BME280;16643;43.158;25.302;2023-04-01T02:44:57;96912.88;;;12.53;62.14
29733;BME280;16643;43.158;25.302;2023-04-01T02:47:23;96910.69;;;12.61;61.83
29733;BME280;16643;43.158;25.302;2023-04-01T02:49:48;96914.50;;;12.69;61.67
29733;BME280;16643;43.158;25.302;2023-04-01T02:52:14;96901.09;;;12.61;60.63
29733;BME280;16643;43.158;25.302;2023-04-01T02:54:40;96889.16;;;12.57;61.91
29733;BME280;16643;43.158;25.302;2023-04-01T02:57:06;96907.78;;;12.65;61.36
29733;BME280;16643;43.158;25.302;2023-04-01T02:59:32;96916.22;;;12.55;61.48
29733;BME280;16643;43.158;25.302;2023-04-01T03:01:57;96909.16;;;12.57;62.80
29733;BME280;16643;43.158;25.302;2023-04-01T03:04:26;96907.44;;;12.42;63.84
29733;BME280;16643;43.158;25.302;2023-04-01T03:06:52;96896.06;;;12.28;64.01
29733;BME280;16643;43.158;25.302;2023-04-01T03:09:17;96905.78;;;12.25;64.05
29733;BME280;16643;43.158;25.302;2023-04-01T03:11:43;96893.53;;;12.11;64.79
29733;BME280;16643;43.158;25.302;2023-04-01T03:14:08;96877.66;;;12.00;64.48
29733;BME280;16643;43.158;25.302;2023-04-01T03:16:34;96879.53;;;11.98;64.72
29733;BME280;16643;43.158;25.302;2023-04-01T03:19:00;96899.75;;;12.09;64.68
29733;BME280;16643;43.158;25.302;2023-04-01T03:21:27;96887.69;;;11.92;65.20
29733;BME280;16643;43.158;25.302;2023-04-01T03:23:53;96873.88;;;11.74;66.31
29733;BME280;16643;43.158;25.302;2023-04-01T03:26:19;96892.19;;;11.57;67.40
29733;BME280;16643;43.158;25.302;2023-04-01T03:28:45;96891.50;;;11.53;67.16
29733;BME280;16643;43.158;25.302;2023-04-01T03:31:11;96893.94;;;11.56;67.44
29733;BME280;16643;43.158;25.302;2023-04-01T03:33:36;96883.59;;;11.55;67.18
29733;BME280;16643;43.158;25.302;2023-04-01T03:36:03;96888.72;;;11.56;67.95
29733;BME280;16643;43.158;25.302;2023-04-01T03:38:33;96881.53;;;11.61;66.50
29733;BME280;16643;43.158;25.302;2023-04-01T03:40:59;96882.25;;;11.63;66.54
29733;BME280;16643;43.158;25.302;2023-04-01T03:43:25;96857.44;;;11.58;66.65
29733;BME280;16643;43.158;25.302;2023-04-01T03:45:52;96889.75;;;11.70;66.94
29733;BME280;16643;43.158;25.302;2023-04-01T03:48:18;96879.91;;;11.75;66.23
29733;BME280;16643;43.158;25.302;2023-04-01T03:50:44;96880.47;;;11.81;65.09
29733;BME280;16643;43.158;25.302;2023-04-01T03:53:10;96876.41;;;11.76;65.97
29733;BME280;16643;43.158;25.302;2023-04-01T03:55:36;96860.28;;;11.69;66.28
29733;BME280;16643;43.158;25.302;2023-04-01T03:58:03;96856.50;;;11.59;66.42
29733;BME280;16643;43.158;25.302;2023-04-01T04:00:29;96863.03;;;11.66;66.80
29733;BME280;16643;43.158;25.302;2023-04-01T04:02:55;96841.66;;;11.61;66.22
29733;BME280;16643;43.158;25.302;2023-04-01T04:05:23;96881.78;;;11.88;65.28
29733;BME280;16643;43.158;25.302;2023-04-01T04:07:49;96845.59;;;11.68;65.61
29733;BME280;16643;43.158;25.302;2023-04-01T04:10:14;96859.28;;;11.72;64.89
29733;BME280;16643;43.158;25.302;2023-04-01T04:12:40;96861.41;;;11.81;64.40
29733;BME280;16643;43.158;25.302;2023-04-01T04:15:06;96859.47;;;11.84;63.74
29733;BME280;16643;43.158;25.302;2023-04-01T04:17:32;96860.03;;;11.89;63.65
29733;BME280;16643;43.158;25.302;2023-04-01T04:19:58;96858.69;;;11.98;63.12
29733;BME280;16643;43.158;25.302;2023-04-01T04:22:23;96877.38;;;12.20;62.77
29733;BME280;16643;43.158;25.302;2023-04-01T04:24:49;96865.13;;;12.22;62.29
29733;BME280;16643;43.158;25.302;2023-04-01T04:27:15;96846.13;;;12.20;61.63
29733;BME280;16643;43.158;25.302;2023-04-01T04:29:41;96849.88;;;12.30;61.14
29733;BME280;16643;43.158;25.302;2023-04-01T04:32:07;96847.50;;;12.42;61.42
29733;BME280;16643;43.158;25.302;2023-04-01T04:34:32;96883.38;;;12.52;62.04
29733;BME280;16643;43.158;25.302;2023-04-01T04:36:58;96845.00;;;12.40;61.28
29733;BME280;16643;43.158;25.302;2023-04-01T04:39:23;96868.69;;;12.65;60.97
29733;BME280;16643;43.158;25.302;2023-04-01T04:41:49;96851.84;;;12.71;61.50
29733;BME280;16643;43.158;25.302;2023-04-01T04:44:15;96847.59;;;12.84;60.31
29733;BME280;16643;43.158;25.302;2023-04-01T04:46:41;96840.69;;;12.83;59.58
29733;BME280;16643;43.158;25.302;2023-04-01T04:49:06;96843.78;;;12.90;59.65
29733;BME280;16643;43.158;25.302;2023-04-01T04:51:32;96855.41;;;12.98;58.99
29733;BME280;16643;43.158;25.302;2023-04-01T04:54:04;96845.38;;;13.06;59.29
29733;BME280;16643;43.158;25.302;2023-04-01T04:56:30;96850.16;;;13.14;58.58
29733;BME280;16643;43.158;25.302;2023-04-01T04:58:57;96848.75;;;13.23;58.59
29733;BME280;16643;43.158;25.302;2023-04-01T05:01:22;96846.53;;;13.31;57.84
29733;BME280;16643;43.158;25.302;2023-04-01T05:03:48;96863.72;;;13.62;57.25
29733;BME280;16643;43.158;25.302;2023-04-01T05:06:15;96867.00;;;13.65;56.83
29733;BME280;16643;43.158;25.302;2023-04-01T05:08:41;96856.22;;;13.70;56.62
29733;BME280;16643;43.158;25.302;2023-04-01T05:11:13;96852.47;;;13.88;55.69
29733;BME280;16643;43.158;25.302;2023-04-01T05:13:39;96860.84;;;13.93;55.63
29733;BME280;16643;43.158;25.302;2023-04-01T05:16:12;96859.16;;;13.92;55.42
29733;BME280;16643;43.158;25.302;2023-04-01T05:18:38;96851.41;;;13.91;55.27
29733;BME280;16643;43.158;25.302;2023-04-01T05:21:04;96852.41;;;14.02;55.91
29733;BME280;16643;43.158;25.302;2023-04-01T05:23:32;96855.56;;;14.07;56.16
29733;BME280;16643;43.158;25.302;2023-04-01T05:26:05;96857.31;;;14.21;55.56
29733;BME280;16643;43.158;25.302;2023-04-01T05:28:31;96831.66;;;14.13;55.38
29733;BME280;16643;43.158;25.302;2023-04-01T05:30:59;96856.28;;;14.36;54.78
29733;BME280;16643;43.158;25.302;2023-04-01T05:33:26;96839.50;;;14.40;54.44
29733;BME280;16643;43.158;25.302;2023-04-01T05:35:53;96833.59;;;14.37;54.83
29733;BME280;16643;43.158;25.302;2023-04-01T05:38:19;96820.72;;;14.34;54.65
29733;BME280;16643;43.158;25.302;2023-04-01T05:40:46;96805.78;;;14.36;54.05
29733;BME280;16643;43.158;25.302;2023-04-01T05:43:12;96825.16;;;14.46;54.46
29733;BME280;16643;43.158;25.302;2023-04-01T05:45:37;96831.97;;;14.48;54.51
29733;BME280;16643;43.158;25.302;2023-04-01T05:48:03;96833.13;;;14.57;54.12
29733;BME280;16643;43.158;25.302;2023-04-01T05:50:30;96846.09;;;14.59;54.07
29733;BME280;16643;43.158;25.302;2023-04-01T05:52:56;96839.66;;;14.64;53.58
29733;BME280;16643;43.158;25.302;2023-04-01T05:55:22;96811.06;;;14.48;53.67
29733;BME280;16643;43.158;25.302;2023-04-01T05:57:47;96824.78;;;14.65;53.04
29733;BME280;16643;43.158;25.302;2023-04-01T06:00:15;96810.53;;;14.56;52.24
29733;BME280;16643;43.158;25.302;2023-04-01T06:02:41;96832.31;;;14.82;51.26
29733;BME280;16643;43.158;25.302;2023-04-01T06:05:15;96829.81;;;14.80;50.46
29733;BME280;16643;43.158;25.302;2023-04-01T06:07:41;96812.44;;;14.79;51.05
29733;BME280;16643;43.158;25.302;2023-04-01T06:10:20;96817.25;;;14.85;50.88
29733;BME280;16643;43.158;25.302;2023-04-01T06:13:07;96836.41;;;14.99;50.56
29733;BME280;16643;43.158;25.302;2023-04-01T06:15:44;96824.47;;;14.95;50.54
29733;BME280;16643;43.158;25.302;2023-04-01T06:24:02;96823.34;;;15.11;50.28
29733;BME280;16643;43.158;25.302;2023-04-01T06:27:10;96837.13;;;15.26;50.19
29733;BME280;16643;43.158;25.302;2023-04-01T06:29:47;96850.94;;;15.28;50.48
29733;BME280;16643;43.158;25.302;2023-04-01T06:32:35;96836.47;;;15.35;50.57
29733;BME280;16643;43.158;25.302;2023-04-01T06:38:21;96837.53;;;15.45;50.22
29733;BME280;16643;43.158;25.302;2023-04-01T06:41:29;96832.88;;;15.49;49.53
29733;BME280;16643;43.158;25.302;2023-04-01T06:46:38;96827.47;;;15.39;50.22
29733;BME280;16643;43.158;25.302;2023-04-01T06:52:03;96823.34;;;15.48;52.15
29733;BME280;16643;43.158;25.302;2023-04-01T06:54:43;96825.47;;;15.43;52.75
29733;BME280;16643;43.158;25.302;2023-04-01T06:57:43;96816.34;;;15.36;53.34
29733;BME280;16643;43.158;25.302;2023-04-01T07:00:34;96803.41;;;15.34;53.65
29733;BME280;16643;43.158;25.302;2023-04-01T07:05:39;96796.97;;;15.38;52.60
29733;BME280;16643;43.158;25.302;2023-04-01T07:08:09;96816.44;;;15.59;53.83
29733;BME280;16643;43.158;25.302;2023-04-01T07:13:22;96811.00;;;15.63;52.12
29733;BME280;16643;43.158;25.302;2023-04-01T07:16:05;96800.56;;;15.74;51.16
29733;BME280;16643;43.158;25.302;2023-04-01T07:18:37;96772.91;;;15.70;50.97
29733;BME280;16643;43.158;25.302;2023-04-01T07:21:11;96783.25;;;15.84;49.93
29733;BME280;16643;43.158;25.302;2023-04-01T07:23:42;96782.84;;;16.01;49.55
29733;BME280;16643;43.158;25.302;2023-04-01T07:26:22;96789.63;;;16.04;49.80
29733;BME280;16643;43.158;25.302;2023-04-01T07:28:48;96795.28;;;16.10;50.21
29733;BME280;16643;43.158;25.302;2023-04-01T07:31:29;96783.78;;;16.24;51.25
29733;BME280;16643;43.158;25.302;2023-04-01T07:34:11;96773.56;;;16.43;49.65
29733;BME280;16643;43.158;25.302;2023-04-01T07:36:45;96771.44;;;16.59;52.27
29733;BME280;16643;43.158;25.302;2023-04-01T07:42:30;96773.19;;;16.94;50.34
29733;BME280;16643;43.158;25.302;2023-04-01T08:09:15;96747.06;;;17.37;47.35
29733;BME280;16643;43.158;25.302;2023-04-01T08:16:59;96747.31;;;16.89;58.65
29733;BME280;16643;43.158;25.302;2023-04-01T08:19:31;96757.19;;;16.75;58.57
29733;BME280;16643;43.158;25.302;2023-04-01T08:22:09;96773.44;;;16.91;59.36
29733;BME280;16643;43.158;25.302;2023-04-01T08:24:41;96767.69;;;16.63;60.17
29733;BME280;16643;43.158;25.302;2023-04-01T08:30:32;96747.47;;;16.07;58.58
29733;BME280;16643;43.158;25.302;2023-04-01T08:33:09;96750.97;;;16.18;57.18
29733;BME280;16643;43.158;25.302;2023-04-01T08:35:46;96731.09;;;16.27;56.10
29733;BME280;16643;43.158;25.302;2023-04-01T08:38:21;96743.66;;;16.46;55.82
29733;BME280;16643;43.158;25.302;2023-04-01T08:40:58;96747.84;;;16.59;53.63
29733;BME280;16643;43.158;25.302;2023-04-01T08:46:19;96737.50;;;17.25;52.30
29733;BME280;16643;43.158;25.302;2023-04-01T08:48:59;96718.72;;;17.40;51.95
29733;BME280;16643;43.158;25.302;2023-04-01T08:58:06;96727.47;;;18.16;52.39
29733;BME280;16643;43.158;25.302;2023-04-01T09:03:31;96718.19;;;18.63;50.28
29733;BME280;16643;43.158;25.302;2023-04-01T09:06:12;96721.22;;;18.79;51.60
29733;BME280;16643;43.158;25.302;2023-04-01T09:09:17;96718.09;;;18.95;49.60
29733;BME280;16643;43.158;25.302;2023-04-01T09:18:17;96710.75;;;18.68;46.26
29733;BME280;16643;43.158;25.302;2023-04-01T09:37:18;96666.41;;;19.04;46.17
29733;BME280;16643;43.158;25.302;2023-04-01T09:42:44;96672.66;;;19.72;48.19
29733;BME280;16643;43.158;25.302;2023-04-01T09:45:33;96673.22;;;19.94;44.80
29733;BME280;16643;43.158;25.302;2023-04-01T09:56:46;96690.19;;;18.83;44.89
29733;BME280;16643;43.158;25.302;2023-04-01T10:19:55;96621.78;;;20.27;44.56
29733;BME280;16643;43.158;25.302;2023-04-01T10:28:49;96581.16;;;19.91;45.76
29733;BME280;16643;43.158;25.302;2023-04-01T10:43:05;96563.41;;;20.67;43.66
29733;BME280;16643;43.158;25.302;2023-04-01T10:48:30;96567.00;;;20.76;43.36
29733;BME280;16643;43.158;25.302;2023-04-01T10:54:17;96556.94;;;20.80;40.62
29733;BME280;16643;43.158;25.302;2023-04-01T10:57:02;96567.03;;;21.12;40.94
29733;BME280;16643;43.158;25.302;2023-04-01T11:17:02;96529.88;;;21.66;40.77
29733;BME280;16643;43.158;25.302;2023-04-01T11:22:08;96523.50;;;21.77;40.89
29733;BME280;16643;43.158;25.302;2023-04-01T11:25:38;96520.19;;;21.75;41.41
29733;BME280;16643;43.158;25.302;2023-04-01T11:31:04;96515.31;;;21.45;40.33
29733;BME280;16643;43.158;25.302;2023-04-01T11:34:02;96524.25;;;21.26;41.83
29733;BME280;16643;43.158;25.302;2023-04-01T11:42:33;96513.56;;;20.82;41.82
29733;BME280;16643;43.158;25.302;2023-04-01T11:45:22;96508.41;;;20.81;42.52
29733;BME280;16643;43.158;25.302;2023-04-01T11:50:52;96500.63;;;19.87;48.95
29733;BME280;16643;43.158;25.302;2023-04-01T11:53:28;96503.09;;;19.33;51.93
29733;BME280;16643;43.158;25.302;2023-04-01T12:04:29;96473.81;;;19.45;52.38
29733;BME280;16643;43.158;25.302;2023-04-01T12:12:54;96447.78;;;18.65;52.84
29733;BME280;16643;43.158;25.302;2023-04-01T12:18:11;96464.81;;;19.38;55.61
29733;BME280;16643;43.158;25.302;2023-04-01T12:20:50;96465.50;;;19.50;52.34
29733;BME280;16643;43.158;25.302;2023-04-01T12:23:36;96466.00;;;19.73;51.57
29733;BME280;16643;43.158;25.302;2023-04-01T12:29:30;96457.44;;;19.61;51.45
29733;BME280;16643;43.158;25.302;2023-04-01T12:37:46;96481.31;;;19.40;51.83
29733;BME280;16643;43.158;25.302;2023-04-01T12:43:40;96470.53;;;19.14;50.59
29733;BME280;16643;43.158;25.302;2023-04-01T12:47:21;96465.41;;;18.94;51.56
29733;BME280;16643;43.158;25.302;2023-04-01T12:49:54;96479.13;;;19.07;52.44
29733;BME280;16643;43.158;25.302;2023-04-01T12:52:39;96475.66;;;18.87;51.30
29733;BME280;16643;43.158;25.302;2023-04-01T12:58:13;96465.81;;;18.60;51.54
29733;BME280;16643;43.158;25.302;2023-04-01T13:03:37;96480.72;;;18.50;52.48
29733;BME280;16643;43.158;25.302;2023-04-01T13:06:40;96477.56;;;18.75;53.78
29733;BME280;16643;43.158;25.302;2023-04-01T13:09:31;96461.03;;;18.54;53.22
29733;BME280;16643;43.158;25.302;2023-04-01T13:20:14;96474.47;;;18.01;54.52
29733;BME280;16643;43.158;25.302;2023-04-01T13:22:52;96471.25;;;17.88;54.41
29733;BME280;16643;43.158;25.302;2023-04-01T13:27:52;96476.63;;;18.17;54.17
29733;BME280;16643;43.158;25.302;2023-04-01T13:30:37;96456.81;;;18.13;54.38
29733;BME280;16643;43.158;25.302;2023-04-01T13:36:11;96461.38;;;18.21;56.02
29733;BME280;16643;43.158;25.302;2023-04-01T13:46:54;96483.00;;;17.42;59.41
29733;BME280;16643;43.158;25.302;2023-04-01T13:49:48;96481.88;;;17.35;59.36
29733;BME280;16643;43.158;25.302;2023-04-01T14:01:29;96506.34;;;16.72;61.70
29733;BME280;16643;43.158;25.302;2023-04-01T14:13:00;96524.22;;;16.02;66.37
29733;BME280;16643;43.158;25.302;2023-04-01T14:32:30;96570.59;;;15.31;79.20
29733;BME280;16643;43.158;25.302;2023-04-01T14:40:41;96646.53;;;14.95;100.00
29733;BME280;16643;43.158;25.302;2023-04-01T14:49:51;96667.47;;;13.68;100.00
29733;BME280;16643;43.158;25.302;2023-04-01T14:52:30;96630.81;;;13.03;100.00
29733;BME280;16643;43.158;25.302;2023-04-01T14:55:00;96655.22;;;13.16;100.00
29733;BME280;16643;43.158;25.302;2023-04-01T14:57:30;96665.00;;;12.98;100.00
29733;BME280;16643;43.158;25.302;2023-04-01T15:00:17;96679.84;;;12.98;100.00
29733;BME280;16643;43.158;25.302;2023-04-01T15:03:01;96684.22;;;12.97;100.00
29733;BME280;16643;43.158;25.302;2023-04-01T15:05:46;96682.38;;;12.85;100.00
29733;BME280;16643;43.158;25.302;2023-04-01T15:08:20;96641.53;;;12.71;100.00
29733;BME280;16643;43.158;25.302;2023-04-01T15:19:00;96596.34;;;12.30;100.00
29733;BME280;16643;43.158;25.302;2023-04-01T15:32:56;96537.63;;;12.39;100.00
29733;BME280;16643;43.158;25.302;2023-04-01T15:35:43;96530.41;;;12.56;100.00
29733;BME280;16643;43.158;25.302;2023-04-01T15:38:33;96505.16;;;12.57;100.00
29733;BME280;16643;43.158;25.302;2023-04-01T15:41:14;96507.34;;;12.50;100.00
29733;BME280;16643;43.158;25.302;2023-04-01T15:43:49;96492.88;;;12.32;100.00
29733;BME280;16643;43.158;25.302;2023-04-01T15:46:41;96508.81;;;12.27;100.00
29733;BME280;16643;43.158;25.302;2023-04-01T15:49:16;96505.78;;;12.33;100.00
29733;BME280;16643;43.158;25.302;2023-04-01T15:51:55;96509.13;;;12.50;100.00
29733;BME280;16643;43.158;25.302;2023-04-01T16:08:52;96567.63;;;13.12;100.00
29733;BME280;16643;43.158;25.302;2023-04-01T16:11:53;96554.34;;;13.02;100.00
29733;BME280;16643;43.158;25.302;2023-04-01T16:17:44;96574.38;;;13.02;100.00
29733;BME280;16643;43.158;25.302;2023-04-01T16:20:20;96580.84;;;12.96;100.00
29733;BME280;16643;43.158;25.302;2023-04-01T16:23:09;96577.97;;;12.87;100.00
29733;BME280;16643;43.158;25.302;2023-04-01T16:25:44;96601.78;;;12.95;100.00
29733;BME280;16643;43.158;25.302;2023-04-01T16:30:44;96615.25;;;13.01;100.00
29733;BME280;16643;43.158;25.302;2023-04-01T16:38:42;96629.84;;;12.91;100.00
29733;BME280;16643;43.158;25.302;2023-04-01T16:41:42;96637.13;;;12.86;100.00
29733;BME280;16643;43.158;25.302;2023-04-01T16:46:58;96627.75;;;12.55;100.00
29733;BME280;16643;43.158;25.302;2023-04-01T16:49:30;96650.38;;;12.69;100.00
29733;BME280;16643;43.158;25.302;2023-04-01T16:52:16;96645.91;;;12.71;100.00
29733;BME280;16643;43.158;25.302;2023-04-01T16:54:58;96642.63;;;12.67;100.00
29733;BME280;16643;43.158;25.302;2023-04-01T16:57:37;96627.84;;;12.68;100.00
29733;BME280;16643;43.158;25.302;2023-04-01T17:05:40;96626.31;;;12.37;100.00
29733;BME280;16643;43.158;25.302;2023-04-01T17:11:27;96635.31;;;12.31;100.00
29733;BME280;16643;43.158;25.302;2023-04-01T17:14:23;96621.38;;;12.18;100.00
29733;BME280;16643;43.158;25.302;2023-04-01T17:17:09;96621.56;;;12.15;100.00
29733;BME280;16643;43.158;25.302;2023-04-01T17:22:55;96582.94;;;11.79;100.00
29733;BME280;16643;43.158;25.302;2023-04-01T17:35:02;96638.75;;;12.04;100.00
29733;BME280;16643;43.158;25.302;2023-04-01T17:43:28;96673.38;;;12.20;100.00
29733;BME280;16643;43.158;25.302;2023-04-01T17:46:24;96659.31;;;11.94;100.00
29733;BME280;16643;43.158;25.302;2023-04-01T17:49:19;96690.22;;;12.14;100.00
29733;BME280;16643;43.158;25.302;2023-04-01T17:52:52;96701.75;;;12.24;100.00
29733;BME280;16643;43.158;25.302;2023-04-01T17:55:26;96696.72;;;12.07;100.00
29733;BME280;16643;43.158;25.302;2023-04-01T18:01:04;96755.28;;;12.00;100.00
29733;BME280;16643;43.158;25.302;2023-04-01T18:11:38;96780.94;;;11.92;100.00
29733;BME280;16643;43.158;25.302;2023-04-01T18:14:31;96794.41;;;11.84;100.00
29733;BME280;16643;43.158;25.302;2023-04-01T18:17:21;96778.50;;;11.73;100.00
29733;BME280;16643;43.158;25.302;2023-04-01T18:19:56;96780.59;;;11.67;100.00
29733;BME280;16643;43.158;25.302;2023-04-01T18:22:36;96781.59;;;11.64;100.00
29733;BME280;16643;43.158;25.302;2023-04-01T18:30:34;96791.97;;;11.50;100.00
29733;BME280;16643;43.158;25.302;2023-04-01T18:38:55;96773.66;;;11.20;100.00
29733;BME280;16643;43.158;25.302;2023-04-01T18:49:57;96773.84;;;11.17;100.00
29733;BME280;16643;43.158;25.302;2023-04-01T18:57:52;96779.22;;;11.14;100.00
29733;BME280;16643;43.158;25.302;2023-04-01T19:04:07;96810.06;;;11.20;100.00
29733;BME280;16643;43.158;25.302;2023-04-01T19:14:51;96806.63;;;11.04;100.00
29733;BME280;16643;43.158;25.302;2023-04-01T19:20:42;96752.53;;;10.62;100.00
29733;BME280;16643;43.158;25.302;2023-04-01T19:38:32;96768.38;;;10.57;100.00
29733;BME280;16643;43.158;25.302;2023-04-01T19:44:09;96848.81;;;10.76;100.00
29733;BME280;16643;43.158;25.302;2023-04-01T19:46:45;96844.56;;;10.90;100.00
29733;BME280;16643;43.158;25.302;2023-04-01T19:57:42;96885.44;;;10.71;100.00
29733;BME280;16643;43.158;25.302;2023-04-01T20:00:22;96861.53;;;10.47;100.00
29733;BME280;16643;43.158;25.302;2023-04-01T20:08:32;96845.94;;;10.30;100.00
29733;BME280;16643;43.158;25.302;2023-04-01T20:13:43;96834.13;;;10.06;100.00
29733;BME280;16643;43.158;25.302;2023-04-01T20:16:13;73728.16;;;-142.82;100.00
29733;BME280;16643;43.158;25.302;2023-04-01T20:18:58;96847.81;;;10.09;100.00
29733;BME280;16643;43.158;25.302;2023-04-01T20:21:52;96866.19;;;10.05;100.00
29733;BME280;16643;43.158;25.302;2023-04-01T20:24:41;96856.41;;;9.93;100.00
29733;BME280;16643;43.158;25.302;2023-04-01T20:30:01;96864.94;;;9.95;100.00
29733;BME280;16643;43.158;25.302;2023-04-01T20:41:23;96874.97;;;9.66;100.00
29733;BME280;16643;43.158;25.302;2023-04-01T20:46:43;96878.41;;;9.67;100.00
29733;BME280;16643;43.158;25.302;2023-04-01T20:57:13;96853.59;;;9.42;100.00
29733;BME280;16643;43.158;25.302;2023-04-01T21:06:18;96888.00;;;9.46;100.00
29733;BME280;16643;43.158;25.302;2023-04-01T21:23:13;96901.31;;;9.38;100.00
29733;BME280;16643;43.158;25.302;2023-04-01T21:28:33;96895.50;;;9.33;100.00
29733;BME280;16643;43.158;25.302;2023-04-01T21:31:27;96900.13;;;9.45;100.00
29733;BME280;16643;43.158;25.302;2023-04-01T21:37:18;96907.63;;;9.52;100.00
29733;BME280;16643;43.158;25.302;2023-04-01T21:45:22;96913.16;;;9.63;100.00
29733;BME280;16643;43.158;25.302;2023-04-01T21:48:26;96846.09;;;9.36;100.00
29733;BME280;16643;43.158;25.302;2023-04-01T21:57:27;96909.41;;;9.70;100.00
29733;BME280;16643;43.158;25.302;2023-04-01T22:00:14;96922.84;;;9.78;100.00
29733;BME280;16643;43.158;25.302;2023-04-01T22:05:21;96929.72;;;9.79;100.00